map of RJOY home
RJOY - Airport
Location
City:  Osaka, Osaka, Japan
Name:Yao
ICAO:RJOY

Details
Type:Airport (Aerodrome, Airfield)
Use:Public/Civil
Latitude:3435'47"N (34.596311)
Longitude:13536'11"E (135.602944)
Datum:WGS 1984
Elevation:39 ft (12 m)
Variation:7.68W (WMM2015 magnetic declination)
-0.07 annual change
Runways:2
Longest:4890 × 150 ft (1490 × 45.5 m), paved

Time
Time Zone:UTC+9
Local Time:

Weather
METAR:RJOY 210900Z 25009KT 9999 FEW025 09/M01 Q1015

Related Locations
Nearby:
Farthest:SSMT: 11991 mi / 19298 km
Mostardas, RS, BR

Find:

   beyond  
but within

Other Information
Maps:
NOTAMs:
Links:
Sources:

  
  • flag of Japan
  • flag of Osaka
  • flag of Osaka
  

Sectional Chart

Flight Planning
at skyvector.com

Satellite Image

Google Maps Satellite view

 

Copyright © 2004-2019 Karl L. Swartz. All rights reserved.
The Great Circle Mapper name and logo are trademarks of the Great Circle Mapper.
All other trademarks mentioned herein belong to their respective owners.
Please see credits for attibutions and further copyright information.

  Follow gcmap on Facebook Follow gcmap on Twitter Follow gcmap on Google+ GCmap on LinkedIn

hCard Microformat

Geo Microformat